Whale Point, California Weather observations

Data are for observation ending at time listed.
 Day   Time    Ave.   Ave.  Ave.  Vector   Max.   Stn.    Total    Solar   Ave.  
  of    of     Air    Rel.  Wind   Wind    Wind   Baro.  Precip.   Rad.    Soil  
Year   Day     Temp.  Hum.  Speed  Dir.    Gust   Pres.                    Temp. 
2014   (PST)    F      %     mph   deg.    mph     mb.     in.     W/m2     F   
------------------------------------------------------------------------------
 211   18:40   61.1    86    2.5   210      5.9   993.2    0.00      43    80.7
 211   18:50   60.8    86    1.9   216      4.0   993.2    0.00      34    80.8
 211   19:00   60.5    87    2.3   191      4.3   993.2    0.00      21    80.9
 211   19:10   59.8    88    2.3   204      4.5   993.2    0.00      10    80.9
 211   19:20   59.5    89    0.2   167      1.5   993.2    0.00       4    81.0
 211   19:30   59.1    90    2.1   198      4.1   993.6    0.00       1    81.0
 211   19:40   58.7    91    2.8   200      5.9   993.6    0.00       0    81.0
 211   19:50   58.4    92    2.4   222      4.2   993.9    0.00       0    81.1
 211   20:00   58.2    93    1.6   208      3.3   993.9    0.00       0    81.0
 211   20:10   58.1    93    2.7   223      4.5   994.2    0.00       0    81.0
 211   20:20   57.9    93    1.7   261      5.0   994.2    0.00       0    81.0
 211   20:30   57.8    94    1.6   248      4.1   994.2    0.00       0    81.0
 211   20:40   57.7    94    2.0   234      4.2   994.6    0.00       0    81.0
 211   20:50   57.5    94    2.1   236      3.8   994.6    0.00       0    80.9
 211   21:00   57.4    94    1.6   230      3.4   994.6    0.00       0    80.9
 211   21:10   57.4    94    2.0   223      3.9   994.6    0.00       0    80.9
 211   21:20   57.4    95    0.9   222      3.4   994.6    0.00       0    80.8
 211   21:30   57.3    95    1.8   267      3.9   994.6    0.00       0    80.8
 211   21:40   57.2    95    2.2   249      5.0   994.2    0.00       0    80.7
 211   21:50   57.2    95    2.0   241      4.5   994.2    0.00       0    80.7
 211   22:00   57.2    95    1.0   231      3.9   994.2    0.00       0    80.6
 211   22:10   57.3    95    1.0    72      3.8   994.2    0.00       0    80.6
 211   22:20   57.2    95    1.1   282      3.6   994.2    0.00       0    80.5
 211   22:30   57.2    95    1.0   286      3.1   994.2    0.00       0    80.5
 211   22:40   57.1    95    1.9   248      5.4   994.2    0.00       0    80.4
 211   22:50   57.1    96    1.6   237      5.0   994.2    0.00       0    80.3
 211   23:00   57.0    96    1.5   188      6.3   994.2    0.00       0    80.3
 211   23:10   57.1    96    0.7     1      2.0   994.2    0.00       0    80.2
 211   23:20   57.1    96    1.2   323      5.0   994.2    0.00       0    80.1
 211   23:30   57.1    96    1.4   358      3.1   994.6    0.00       0    80.1
 211   23:40   57.1    96    1.2   311      4.7   994.6    0.00       0    80.0
 211   23:50   57.1    96    1.1   308      5.3   994.6    0.00       0    79.9
 212    0:00   57.1    96    1.2   254      4.8   994.9    0.00       0    79.8
 212    0:10   57.1    96    1.0   297      3.1   994.6    0.00       0    79.8
 212    0:20   57.1    96    1.9   243      6.6   994.9    0.00       0    79.7
 212    0:30   57.1    96    1.5    59      4.3   994.9    0.00       0    79.6
 212    0:40   57.1    96    1.4   149      4.5   994.6    0.00       0    79.6
 212    0:50   57.1    96    1.0     1      3.1   994.6    0.00       0    79.5
 212    1:00   57.1    96    1.9    22      3.7   994.6    0.00       0    79.4
 212    1:10   57.0    96    1.5    68      3.4   994.2    0.00       0    79.4
 212    1:20   57.0    96    0.7   255      3.2   993.9    0.00       0    79.3
 212    1:30   57.0    96    0.5   341      3.4   993.9    0.00       0    79.2
 212    1:40   57.0    96    0.7    24      1.9   994.2    0.00       0    79.1
 212    1:50   57.0    96    0.1    93      1.1   994.2    0.00       0    79.1
 212    2:00   57.0    96    0.4   342      1.1   993.9    0.00       0    79.0
 212    2:10   56.8    96    1.1   262      2.6   993.9    0.00       0    78.9
 212    2:20   56.8    96    2.3   255      5.0   993.9    0.00       0    78.8
 212    2:30   56.8    96    1.0   286      2.5   993.9    0.00       0    78.8
 212    2:40   56.8    96    0.3     8      1.4   993.9    0.00       0    78.7
 212    2:50   56.7    96    0.4    20      1.6   993.9    0.00       0    78.6
 212    3:00   56.8    96    0.4   177      1.3   993.9    0.00       0    78.6
 212    3:10   56.7    96    0.6   271      2.0   993.9    0.00       0    78.5
 212    3:20   56.5    96    2.1   342      3.9   993.9    0.00       0    78.4
 212    3:30   56.4    96    1.1   310      2.8   993.6    0.00       0    78.3
 212    3:40   56.5    96    1.6   248      4.2   993.9    0.00       0    78.3
 212    3:50   56.2    96    1.8   318      4.0   993.9    0.00       0    78.2
 212    4:00   56.2    96    1.2   291      3.9   993.9    0.00       0    78.2
 212    4:10   56.3    96    0.8   226      3.1   993.9    0.00       0    78.1
 212    4:20   56.3    96    0.0     0      0.0   993.9    0.00       0    78.0
 212    4:30   56.3    96    0.4   317      2.0   993.6    0.00       0    78.0
 212    4:40   56.2    96    0.5   290      2.0   993.6    0.00       0    77.9
 212    4:50   56.0    96    1.3     6      2.6   993.6    0.00       0    77.8
 212    5:00   55.9    96    0.9   260      3.4   993.9    0.00       0    77.8
 212    5:10   55.9    96    1.3   317      3.9   993.9    0.00       1    77.7
 212    5:20   55.9    96    0.8   334      2.9   993.9    0.00       2    77.6
 212    5:30   55.9    96    0.5   314      2.0   993.9    0.00       3    77.6
 212    5:40   55.9    96    1.3   347      2.9   993.9    0.00       5    77.5
 212    5:50   55.8    96    0.9   304      2.0   993.9    0.00       7    77.4
 212    6:00   55.9    96    1.4   293      3.7   993.9    0.00      16    77.4
 212    6:10   55.7    96    0.8   281      3.1   993.9    0.00      23    77.3
 212    6:20   55.8    96    1.7   235      4.0   993.9    0.00      30    77.2
 212    6:30   55.8    96    1.3   243      2.6   994.2    0.00      38    77.2
 212    6:40   55.8    96    1.9   222      4.2   994.2    0.00      48    77.1
 212    6:50   55.7    96    2.5   227      4.5   994.2    0.00      54    77.1
 212    7:00   55.9    96    1.7   230      2.9   994.2    0.00      65    77.0
 212    7:10   56.0    96    1.5   227      2.9   994.2    0.00      87    76.9
 212    7:20   56.1    96    1.8   227      3.4   994.2    0.00     109    76.9
 212    7:30   56.2    96    1.9   224      3.2   994.2    0.00     153    76.8
 212    7:40   56.3    96    2.4   221      5.0   994.2    0.00     146    76.7
 212    7:50   55.9    96    3.3   218      6.3   994.2    0.00     153    76.7
 212    8:00   56.0    96    2.8   232      6.0   994.2    0.00     175    76.6
 212    8:10   56.1    96    2.7   229      4.4   994.6    0.00     192    76.6
 212    8:20   56.2    96    2.7   221      4.5   994.6    0.00     203    76.5
 212    8:30   56.4    96    2.6   224      4.5   994.2    0.00     230    76.5
 212    8:40   56.5    96    3.1   226      4.7   994.2    0.00     244    76.4
 212    8:50   56.6    96    2.5   232      4.3   994.2    0.00     331    76.4
 212    9:00   56.9    96    3.1   220      5.5   994.2    0.00     398    76.3
 212    9:10   56.7    96    5.0   222      7.7   994.6    0.00     311    76.3
 212    9:20   56.6    96    3.5   225      6.5   994.6    0.00     331    76.3
 212    9:30   57.0    96    3.7   240      7.9   994.6    0.00     317    76.2
 212    9:40   56.6    96    4.5   261      8.9   994.6    0.00     250    76.2
 212    9:50   57.0    96    4.3   257      8.5   994.2    0.00     325    76.2
 212   10:00   57.0    96    4.1   226      8.8   994.2    0.00     435    76.2
 212   10:10   58.1    96    3.0   203      5.8   994.2    0.00     642    76.2
 212   10:20   59.2    96    4.1   211      6.6   993.9    0.00     921    76.2
 212   10:30   59.8    95    5.5   204      8.3   993.9    0.00     844    76.2
 212   10:40   59.5    91    5.7   206      9.1   993.9    0.00     871    76.2
 212   10:50   60.6    87    4.8   200      8.6   993.9    0.00     942    76.2
 212   11:00   60.7    86    4.8   214      9.1   993.9    0.00     851    76.2
 212   11:10   60.6    86    4.3   226      8.3   993.9    0.00     998    76.2
 212   11:20   61.4    84    5.5   220     10.1   993.9    0.00     941    76.2
 212   11:30   60.6    86    5.2   224     11.1   994.2    0.00     995    76.2
 212   11:40   62.1    82    4.9   226      8.1   994.2    0.00    1021    76.2
 212   11:50   61.9    83    5.2   221      9.2   994.2    0.00    1052    76.2
 212   12:00   62.3    82    5.1   221      9.3   993.9    0.00    1028    76.3
 212   12:10   62.0    83    6.1   216     11.0   993.9    0.00     924    76.3
 212   12:20   60.5    86    5.8   219     11.2   993.9    0.00     704    76.4
 212   12:30   60.1    88    5.5   213     11.4   993.9    0.00     789    76.4
 212   12:40   60.4    88    5.0   212     10.4   993.9    0.00     741    76.5
 212   12:50   60.7    86    5.2   214     11.0   993.9    0.00     874    76.6
 212   13:00   62.2    83    5.2   223     10.2   993.6    0.00    1055    76.7
 212   13:10   63.5    80    5.3   224      9.4   993.6    0.00    1009    76.7
 212   13:20   62.7    82    5.7   222     11.5   993.6    0.00     937    76.8
 212   13:30   62.1    83    6.1   213     12.1   993.6    0.00     841    76.9
 212   13:40   62.1    83    5.8   208     13.2   993.6    0.00     857    77.1
 212   13:50   63.2    81    5.5   216     10.4   993.6    0.00     950    77.1
 212   14:00   63.4    80    5.1   232      9.6   993.2    0.00     819    77.3
 212   14:10   63.9    79    6.0   236      9.6   993.2    0.00     945    77.4
 212   14:20   63.7    80    5.3   227     10.9   992.9    0.00     859    77.5
 212   14:30   63.9    79    5.9   227     10.1   992.9    0.00     811    77.6
 212   14:40   63.8    80    5.8   236     10.6   992.9    0.00     728    77.8
 212   14:50   63.1    82    5.2   241     10.5   992.9    0.00     853    77.9
 212   15:00   63.7    80    6.3   230     12.3   992.9    0.00     821    78.0
 212   15:10   62.6    83    6.8   232     11.3   992.9    0.00     858    78.2
 212   15:20   63.4    81    6.6   236     13.5   992.9    0.00     852    78.3
 212   15:30   65.1    77    5.1   227     10.4   992.6    0.00     742    78.4
 212   15:40   63.8    80    6.7   239     11.8   992.6    0.00     720    78.6
 212   15:50   64.3    79    4.7   230     10.7   992.2    0.00     696    78.7
 212   16:00   64.4    78    5.5   231     10.7   992.2    0.00     658    78.9
 212   16:10   63.9    80    6.5   239     14.2   992.6    0.00     661    79.0
 212   16:20   64.6    78    4.8   231     11.2   992.2    0.00     592    79.1
 212   16:30   65.2    76    4.8   233      7.8   992.2    0.00     544    79.2
 212   16:40   64.8    77    6.4   234     14.8   992.2    0.00     519    79.4
 212   16:50   61.4    85    5.3   272     15.5   992.6    0.00     285    79.5
 212   17:00   62.8    82    3.8   252      8.7   992.2    0.00     359    79.7
 212   17:10   63.8    79    4.3   252     10.5   992.2    0.00     419    79.8
 212   17:20   63.3    80    4.3   253      8.0   991.9    0.00     324    79.9
 212   17:30   63.0    81    3.9   250      8.1   991.9    0.00     402    80.0
 212   17:40   62.9    81    3.1   240      5.8   991.9    0.00     361    80.1
 212   17:50   61.3    85    5.1   255     11.5   991.9    0.00     236    80.2
 212   18:00   59.7    89    4.0   256      8.5   991.9    0.00     167    80.3
 212   18:10   59.6    90    3.0   251      6.7   991.9    0.00     136    80.5
 212   18:20   59.7    90    1.2   263      4.2   991.9    0.00      92    80.5
 212   18:30   59.7    89    2.6   222      6.1   991.5    0.00      76    80.6

Return to Whale Point graphs page.


Western Regional Climate Center,wrcc@dri.edu